首页
METAR-TAF:

METAR-TAF

机场 :

伯尔尼-贝尔普机场

伯尔尼, 瑞士

纬度: 46-55N, 经度: 007-30E, 海拔: 505米

当前天气观测

该预报发布于15分钟前的11:50 UTC
风速3节,风向多变
温度 4°C
湿度 81%
气压 1019 hPa
能见度10公里或以上
散云层高于8500英尺

METAR: LSZB 261150Z VRB03KT 9999 SCT085 04/01 Q1019 NOSIG

时间: 13:05 (12:05 UTC)

预报

该预报发布于40分钟前的11:25 UTC
预报有效从26日的 12点(UTC)到 26日的 21点(UTC)
风速3节,风向多变
能見度: 9000
散云层高于8000英尺
几率 30% :
短暂存在
从 26日的 15点(UTC)到 26日的 19点(UTC)
多云层高于4500英尺
小雨

TAF: LSZB 261125Z 2612/2621 VRB03KT 9000 SCT080 PROB30 TEMPO 2615/2619 -RA BKN045

超过4000个机场的气象观测和天气预报(METAR&TAF报告)。

可查询的气象台以黄色和红色小点在地图上表示。

将鼠标移到小点上方,可查看气象台名称。

然后点击查看天气观测和预报。

如需切换地图:点击带黑十字的绿色按钮放大地图;点击带横线的绿色按钮缩小地图;或者点击绿色箭头查看邻近地区的地图。


METAR-TAF: